Time;durP1;ratioP1;P1;durP2;ratioP2;P2;SDS_P1;SDS_P2;PMS_P1;PMS_P2;Temp;Humidity;BMP_temperature;BMP_pressure;BME280_temperature;BME280_humidity;BME280_pressure;Samples;Min_cycle;Max_cycle;Signal;HPM_P1;HPM_P2
2021/03/13 09:40:43;;;;;;;2.10;0.80;;;;;;;9.44;53.29;97716.16;5092159;27;20356;-87
2021/03/13 09:43:11;;;;;;;1.70;0.70;;;;;;;9.55;53.17;97735.31;5089667;28;20040;-83
2021/03/13 09:45:50;;;;;;;2.53;0.45;;;;;;;9.53;52.60;97710.31;5089445;28;20063;-86
2021/03/13 09:48:16;;;;;;;2.55;0.68;;;;;;;9.48;52.78;97726.38;5089356;28;20044;-83
2021/03/13 09:50:43;;;;;;;5.15;0.63;;;;;;;9.42;52.34;97719.09;5089814;28;20048;-84
2021/03/13 09:53:11;;;;;;;2.30;1.42;;;;;;;9.43;52.34;97723.47;5085917;28;20052;-84
2021/03/13 09:55:37;;;;;;;1.77;0.50;;;;;;;9.41;52.42;97719.31;5082703;28;20048;-83
2021/03/13 09:58:07;;;;;;;0.70;0.50;;;;;;;9.42;53.17;97710.94;5086557;28;20048;-83
2021/03/13 10:00:38;;;;;;;;;;;;;;;9.56;52.44;97728.88;5089135;28;20044;-83
2021/03/13 10:03:11;;;;;;;0.52;0.38;;;;;;;9.44;52.53;97708.88;5087721;28;19920;-83
2021/03/13 10:05:40;;;;;;;4.25;0.98;;;;;;;9.35;52.17;97712.88;5088046;28;20377;-82
2021/03/13 10:08:13;;;;;;;0.93;0.47;;;;;;;9.23;52.33;97707.25;5088882;28;20044;-86
2021/03/13 10:10:47;;;;;;;3.70;1.00;;;;;;;9.32;52.54;97722.25;5088613;28;20055;-83
2021/03/13 10:13:16;;;;;;;4.15;0.65;;;;;;;9.29;53.02;97709.13;5087949;28;20045;-85
2021/03/13 10:15:43;;;;;;;0.95;0.50;;;;;;;9.36;53.04;97722.66;5087931;28;20056;-83
2021/03/13 10:18:12;;;;;;;3.55;0.50;;;;;;;9.30;52.50;97682.81;5087761;28;20152;-83
2021/03/13 10:20:54;;;;;;;5.60;0.63;;;;;;;9.38;52.84;97701.59;5088754;28;20049;-83
2021/03/13 10:23:23;;;;;;;0.47;0.43;;;;;;;9.38;52.32;97686.16;5087840;28;20044;-83
2021/03/13 10:25:57;;;;;;;4.72;0.50;;;;;;;9.45;53.90;97696.97;5087379;28;20121;-82
2021/03/13 10:28:28;;;;;;;5.70;2.65;;;;;;;9.48;52.73;97695.72;5087817;28;20048;-83
2021/03/13 10:31:11;;;;;;;1.38;0.57;;;;;;;9.42;52.33;97680.28;5075493;28;20521;-82
2021/03/13 10:33:41;;;;;;;8.32;0.60;;;;;;;9.50;51.91;97683.59;5071043;28;20373;-83
2021/03/13 10:36:14;;;;;;;4.28;0.45;;;;;;;9.53;51.61;97677.75;5087606;28;20044;-83
2021/03/13 10:38:42;;;;;;;1.17;0.35;;;;;;;9.45;52.36;97660.88;5086604;28;20475;-83
2021/03/13 10:41:10;;;;;;;2.38;0.43;;;;;;;9.53;52.39;97680.47;5087562;28;20048;-83
2021/03/13 10:43:40;;;;;;;0.47;0.47;;;;;;;9.59;52.12;97677.94;5087394;28;20044;-84
2021/03/13 10:46:16;;;;;;;1.52;1.20;;;;;;;9.49;52.15;97653.97;5086814;28;20052;-84
2021/03/13 10:49:03;;;;;;;2.03;0.50;;;;;;;9.57;52.46;97653.72;5085764;28;20468;-83
2021/03/13 10:51:31;;;;;;;4.90;0.50;;;;;;;9.61;51.21;97682.09;5069814;28;20064;-86
2021/03/13 10:53:58;;;;;;;0.35;0.35;;;;;;;9.69;52.27;97668.28;5073760;28;20048;-83
2021/03/13 10:56:40;;;;;;;0.32;0.30;;;;;;;9.65;52.79;97649.94;5072673;28;20051;-83
2021/03/13 10:59:09;;;;;;;4.38;0.50;;;;;;;9.74;52.00;97667.66;5075416;28;20040;-81
2021/03/13 11:01:47;;;;;;;2.33;0.38;;;;;;;9.65;52.51;97645.34;5078547;28;20057;-82
2021/03/13 11:06:59;;;;;;;4.22;0.73;;;;;;;9.74;51.90;97660.34;5077014;28;20052;-82
2021/03/13 11:09:26;;;;;;;4.75;0.57;;;;;;;9.71;51.56;97641.78;5074225;28;20053;-83
2021/03/13 11:11:52;;;;;;;2.60;0.50;;;;;;;9.65;50.93;97642.63;5073765;28;20053;-84
2021/03/13 11:14:26;;;;;;;0.75;0.40;;;;;;;9.59;51.25;97620.94;5073480;28;20076;-84
2021/03/13 11:16:53;;;;;;;3.65;0.82;;;;;;;9.73;51.48;97655.13;5069109;28;20052;-83
2021/03/13 11:19:25;;;;;;;2.15;0.55;;;;;;;9.75;51.50;97644.88;5073244;28;20072;-83
2021/03/13 11:21:59;;;;;;;4.18;0.57;;;;;;;9.64;51.39;97654.53;5073001;28;20123;-83
2021/03/13 11:24:29;;;;;;;2.15;0.20;;;;;;;9.72;50.80;97643.41;5073013;28;20052;-84
2021/03/13 11:26:55;;;;;;;;;;;;;;;9.94;51.09;97648.53;5075666;28;20056;-82
2021/03/13 11:29:23;;;;;;;1.85;0.73;;;;;;;9.98;51.00;97652.47;5073662;28;20010;-82
2021/03/13 11:31:50;;;;;;;2.45;0.50;;;;;;;9.94;50.60;97653.97;5072840;28;20052;-83
2021/03/13 11:34:16;;;;;;;2.83;0.47;;;;;;;9.80;50.55;97652.34;5071790;28;20048;-82
2021/03/13 11:36:43;;;;;;;1.35;0.38;;;;;;;9.77;50.45;97650.09;5072576;28;20056;-83
2021/03/13 11:39:10;;;;;;;0.63;0.30;;;;;;;9.83;50.85;97650.06;5072559;28;20413;-82
2021/03/13 11:41:40;;;;;;;1.15;0.47;;;;;;;9.70;51.05;97633.84;5073831;28;20058;-83
2021/03/13 11:44:11;;;;;;;0.90;0.77;;;;;;;9.70;51.08;97631.97;5073438;28;20053;-82
2021/03/13 11:46:42;;;;;;;0.30;0.30;;;;;;;9.60;51.47;97631.59;5072907;28;20055;-83
2021/03/13 11:49:11;;;;;;;0.88;0.43;;;;;;;9.63;51.72;97658.28;5073877;28;20057;-82
2021/03/13 11:51:41;;;;;;;1.90;0.73;;;;;;;9.59;52.42;97651.66;5073477;28;20048;-82
2021/03/13 11:54:10;;;;;;;1.90;0.60;;;;;;;9.63;52.61;97655.56;5071752;28;20052;-82
2021/03/13 11:56:37;;;;;;;0.40;0.38;;;;;;;9.51;52.02;97639.13;5074148;28;20298;-82
2021/03/13 11:59:03;;;;;;;3.67;0.63;;;;;;;9.45;52.83;97641.88;5067455;28;20049;-81
2021/03/13 12:01:29;;;;;;;0.52;0.30;;;;;;;9.38;53.01;97658.19;5066482;28;20052;-83
2021/03/13 12:03:58;;;;;;;0.52;0.40;;;;;;;9.38;52.68;97644.63;5072587;28;20040;-83
2021/03/13 12:06:24;;;;;;;2.03;0.43;;;;;;;9.34;53.90;97625.22;5072037;28;20052;-82
2021/03/13 12:09:00;;;;;;;1.13;0.45;;;;;;;9.39;53.71;97644.41;5071529;28;20052;-83
2021/03/13 12:11:35;;;;;;;1.70;0.60;;;;;;;9.41;53.62;97660.47;5073890;28;20059;-83
2021/03/13 12:14:01;;;;;;;1.33;0.70;;;;;;;9.42;54.39;97661.31;5072890;28;20052;-83
2021/03/13 12:16:27;;;;;;;4.57;0.50;;;;;;;9.41;53.80;97652.34;5072040;28;20048;-82
2021/03/13 12:18:56;;;;;;;1.90;0.50;;;;;;;9.55;53.73;97661.25;5071227;28;20041;-83
2021/03/13 12:21:23;;;;;;;0.77;0.40;;;;;;;9.39;53.79;97643.56;5072205;28;20052;-85
2021/03/13 12:23:50;;;;;;;0.93;0.38;;;;;;;9.52;54.34;97664.41;5072756;28;20054;-83
2021/03/13 12:26:16;;;;;;;0.80;0.50;;;;;;;9.48;53.95;97650.41;5070782;28;20109;-84
2021/03/13 12:28:42;;;;;;;0.70;0.52;;;;;;;9.55;54.20;97658.53;5071845;28;20049;-83
2021/03/13 12:31:09;;;;;;;0.60;0.35;;;;;;;9.41;54.74;97641.50;5071420;28;20088;-84
2021/03/13 12:33:35;;;;;;;1.48;0.60;;;;;;;9.48;55.50;97657.72;5071543;28;20068;-83
2021/03/13 12:36:02;;;;;;;0.60;0.30;;;;;;;9.46;55.37;97655.22;5070940;28;20117;-83
2021/03/13 12:38:29;;;;;;;0.95;0.65;;;;;;;9.34;56.78;97684.06;5071221;28;20071;-83
2021/03/13 12:40:56;;;;;;;1.75;0.60;;;;;;;9.10;57.66;97659.31;5071768;28;20291;-83
2021/03/13 12:43:22;;;;;;;0.50;0.50;;;;;;;9.06;58.29;97696.00;5070673;28;20052;-84
2021/03/13 12:45:49;;;;;;;0.93;0.50;;;;;;;8.89;59.24;97702.94;5070833;28;20052;-83
2021/03/13 12:48:15;;;;;;;0.30;0.30;;;;;;;8.76;62.43;97723.59;5071230;28;20041;-84
2021/03/13 12:50:43;;;;;;;2.83;0.40;;;;;;;8.38;66.85;97707.88;5070253;28;20549;-84
2021/03/13 12:53:09;;;;;;;0.40;0.40;;;;;;;8.07;69.32;97728.25;5070198;28;20742;-83
2021/03/13 12:55:36;;;;;;;1.98;0.40;;;;;;;7.80;71.01;97738.16;5068672;28;20390;-83
2021/03/13 12:58:03;;;;;;;1.55;0.60;;;;;;;7.44;75.51;97764.38;5070969;28;20068;-84
2021/03/13 13:00:29;;;;;;;3.20;0.50;;;;;;;6.77;78.47;97795.47;5071276;28;20049;-84
2021/03/13 13:02:56;;;;;;;1.00;0.47;;;;;;;6.04;79.80;97811.75;5070967;28;20047;-84
2021/03/13 13:05:22;;;;;;;1.17;0.50;;;;;;;5.77;80.11;97824.06;5070660;28;20468;-82
2021/03/13 13:07:49;;;;;;;1.70;0.30;;;;;;;5.58;79.17;97833.53;5071086;28;20465;-85
2021/03/13 13:10:19;;;;;;;0.40;0.40;;;;;;;5.63;80.62;97828.41;5072173;28;20503;-85
2021/03/13 13:12:47;;;;;;;4.05;0.70;;;;;;;5.77;81.39;97824.88;5072709;28;20098;-85
2021/03/13 13:15:14;;;;;;;0.45;0.45;;;;;;;5.64;79.57;97840.88;5066733;28;20144;-85
2021/03/13 13:17:42;;;;;;;0.65;0.60;;;;;;;5.52;82.37;97839.66;5070181;28;20049;-85
2021/03/13 13:20:11;;;;;;;1.25;0.57;;;;;;;5.48;83.88;97853.50;5069974;28;20052;-84
2021/03/13 13:22:38;;;;;;;4.68;1.10;;;;;;;5.61;83.56;97852.03;5070093;28;20131;-84
2021/03/13 13:25:06;;;;;;;0.77;0.57;;;;;;;5.33;82.08;97847.28;5070639;28;20072;-85
2021/03/13 13:27:34;;;;;;;0.60;0.60;;;;;;;5.37;83.27;97861.22;5069665;28;20113;-85
2021/03/13 13:30:04;;;;;;;0.65;0.65;;;;;;;5.15;83.92;97844.91;5069828;28;20129;-84
2021/03/13 13:32:30;;;;;;;3.28;1.00;;;;;;;5.23;84.61;97866.38;5070283;28;20063;-84
2021/03/13 13:34:58;;;;;;;0.50;0.50;;;;;;;5.17;82.46;97863.59;5070551;28;20041;-85
2021/03/13 13:37:24;;;;;;;0.60;0.60;;;;;;;5.04;81.06;97873.09;5070433;28;20049;-86
2021/03/13 13:39:51;;;;;;;0.80;0.50;;;;;;;5.02;82.43;97872.47;5071000;28;20048;-84
2021/03/13 13:42:18;;;;;;;1.23;0.55;;;;;;;4.78;82.52;97833.09;5070589;28;20082;-83
2021/03/13 13:44:44;;;;;;;0.70;0.60;;;;;;;5.06;84.31;97852.22;5049335;28;20056;-83
2021/03/13 13:47:12;;;;;;;2.10;0.60;;;;;;;4.96;81.75;97822.00;5069659;28;20041;-84
2021/03/13 13:49:38;;;;;;;1.80;0.60;;;;;;;4.96;81.06;97806.69;5070278;28;20056;-83
2021/03/13 13:52:05;;;;;;;0.55;0.55;;;;;;;5.13;80.84;97814.59;5070074;28;20412;-85
2021/03/13 13:54:32;;;;;;;1.35;0.80;;;;;;;5.28;80.97;97828.97;5070675;28;20062;-84
2021/03/13 13:57:02;;;;;;;0.77;0.77;;;;;;;5.21;79.22;97813.69;5070735;28;20061;-85
2021/03/13 13:59:29;;;;;;;0.80;0.80;;;;;;;5.15;79.78;97836.84;5070032;28;20103;-83
2021/03/13 14:01:56;;;;;;;1.73;0.80;;;;;;;5.13;78.89;97823.56;5070666;28;20041;-84
2021/03/13 14:04:24;;;;;;;1.67;0.90;;;;;;;5.16;77.20;97822.31;5070153;28;20420;-84
2021/03/13 14:06:51;;;;;;;0.60;0.60;;;;;;;5.26;79.28;97824.78;5068947;28;20538;-84
2021/03/13 14:09:17;;;;;;;1.65;0.80;;;;;;;5.31;78.02;97808.88;5070260;28;20177;-83
2021/03/13 14:11:43;;;;;;;0.70;0.70;;;;;;;5.32;77.81;97803.31;5070487;28;20468;-83
2021/03/13 14:14:15;;;;;;;1.50;0.50;;;;;;;5.56;78.99;97832.88;5070464;28;20151;-84
2021/03/13 14:16:42;;;;;;;1.58;0.60;;;;;;;5.42;77.93;97813.81;5069979;28;20049;-82
2021/03/13 14:19:15;;;;;;;1.65;0.80;;;;;;;5.53;77.77;97822.47;5070191;28;20449;-83
2021/03/13 14:21:42;;;;;;;2.97;0.90;;;;;;;5.61;77.05;97819.66;5069722;28;20462;-83
2021/03/13 14:24:12;;;;;;;2.78;1.10;;;;;;;5.48;76.40;97791.50;5069618;28;20053;-82
2021/03/13 14:26:38;;;;;;;0.50;0.50;;;;;;;5.58;77.88;97785.81;5071743;28;20044;-82
2021/03/13 14:29:33;;;;;;;3.80;0.82;;;;;;;5.63;74.52;97810.38;5074474;28;20040;-83
2021/03/13 14:35:01;;;;;;;3.22;0.60;;;;;;;5.58;73.33;97782.31;5069306;28;20060;-82
2021/03/13 14:37:28;;;;;;;0.70;0.70;;;;;;;5.56;75.36;97782.50;5072866;28;20044;-82
2021/03/13 14:40:05;;;;;;;2.92;0.50;;;;;;;5.57;72.47;97783.31;5074280;28;20094;-82
2021/03/13 14:42:31;;;;;;;2.40;0.65;;;;;;;5.76;72.87;97814.28;5073315;28;20219;-82
2021/03/13 14:44:58;;;;;;;1.70;0.80;;;;;;;5.59;73.31;97786.69;5074256;28;20055;-82
2021/03/13 14:47:25;;;;;;;1.80;0.60;;;;;;;5.63;71.33;97761.00;5070588;28;20524;-82
2021/03/13 14:49:51;;;;;;;1.65;0.50;;;;;;;5.65;70.99;97750.88;5074125;28;20056;-82
2021/03/13 14:52:19;;;;;;;0.70;0.52;;;;;;;5.80;69.49;97775.13;5072341;28;20048;-82
2021/03/13 14:54:46;;;;;;;1.02;0.70;;;;;;;5.69;69.92;97771.06;5072390;28;20048;-82
2021/03/13 14:57:14;;;;;;;0.95;0.60;;;;;;;5.86;70.37;97777.06;5074170;28;20044;-82
2021/03/13 14:59:40;;;;;;;2.47;1.00;;;;;;;5.83;67.98;97758.56;5071735;28;20069;-82
2021/03/13 15:02:08;;;;;;;0.47;0.47;;;;;;;5.82;68.47;97762.28;5073339;28;20045;-82
2021/03/13 15:04:34;;;;;;;1.38;0.75;;;;;;;5.97;68.58;97773.91;5072929;28;20079;-82
2021/03/13 15:07:01;;;;;;;0.60;0.60;;;;;;;5.84;68.31;97754.81;5072772;28;20098;-81
2021/03/13 15:09:27;;;;;;;1.65;0.80;;;;;;;5.91;68.18;97752.22;5072050;28;20049;-82
2021/03/13 15:11:54;;;;;;;5.47;1.50;;;;;;;5.84;67.95;97757.53;5073333;28;20049;-82
2021/03/13 15:14:21;;;;;;;2.13;0.68;;;;;;;5.91;68.29;97771.94;5072065;28;20079;-82
2021/03/13 15:16:47;;;;;;;5.43;0.95;;;;;;;5.90;67.35;97789.16;5072722;28;20056;-82
2021/03/13 15:19:13;;;;;;;1.88;0.85;;;;;;;5.83;67.65;97763.97;5071438;28;20119;-82
2021/03/13 15:21:40;;;;;;;0.60;0.57;;;;;;;5.75;68.02;97755.97;5072505;28;20056;-81
2021/03/13 15:24:07;;;;;;;1.10;0.50;;;;;;;5.86;67.54;97777.06;5072365;28;20048;-83
2021/03/13 15:26:36;;;;;;;1.75;0.73;;;;;;;5.73;67.32;97749.94;5068502;28;20507;-82
2021/03/13 15:29:03;;;;;;;2.50;0.90;;;;;;;5.86;68.18;97768.97;5071812;28;20086;-82
2021/03/13 15:31:30;;;;;;;1.35;0.88;;;;;;;5.88;66.38;97760.69;5072564;28;20059;-82
2021/03/13 15:33:56;;;;;;;3.10;1.00;;;;;;;5.83;66.65;97754.00;5072146;28;20549;-81
2021/03/13 15:36:22;;;;;;;4.05;2.03;;;;;;;5.83;67.48;97740.50;5071019;28;20044;-82
2021/03/13 15:38:49;;;;;;;1.58;0.95;;;;;;;5.90;65.72;97735.22;5068491;28;20048;-82
2021/03/13 15:41:15;;;;;;;3.65;1.33;;;;;;;5.93;65.03;97745.63;5074935;28;20119;-82
2021/03/13 15:43:42;;;;;;;2.47;0.90;;;;;;;6.09;66.42;97771.56;5073843;28;20130;-82
2021/03/13 15:46:13;;;;;;;0.95;0.63;;;;;;;6.03;66.79;97773.13;5067298;28;20045;-82
2021/03/13 15:48:40;;;;;;;1.58;0.68;;;;;;;5.93;66.77;97782.53;5056508;28;20063;-82
2021/03/13 15:51:06;;;;;;;0.98;0.70;;;;;;;5.98;67.57;97769.38;5071972;28;20044;-82
2021/03/13 15:53:33;;;;;;;1.23;0.93;;;;;;;5.91;69.15;97752.22;5071911;28;20102;-82
2021/03/13 15:55:59;;;;;;;1.40;0.70;;;;;;;5.97;67.57;97768.50;5069097;28;20048;-82
2021/03/13 15:58:26;;;;;;;0.70;0.70;;;;;;;5.89;67.75;97765.91;5072170;28;20058;-82
2021/03/13 16:00:52;;;;;;;2.35;1.02;;;;;;;5.91;67.62;97753.06;5071786;28;20072;-82
2021/03/13 16:03:19;;;;;;;0.57;0.57;;;;;;;5.95;68.57;97785.91;5071656;28;20052;-82
2021/03/13 16:05:46;;;;;;;1.48;0.70;;;;;;;5.95;68.41;97757.06;5067861;28;20055;-82
2021/03/13 16:08:12;;;;;;;1.13;0.52;;;;;;;6.01;68.43;97760.88;5072127;28;20040;-82
2021/03/13 16:10:39;;;;;;;1.70;0.85;;;;;;;6.24;69.28;97789.56;5070927;28;20098;-82
2021/03/13 16:13:05;;;;;;;3.42;0.70;;;;;;;5.99;69.37;97771.00;5070962;28;20045;-82
2021/03/13 16:15:32;;;;;;;0.98;0.80;;;;;;;5.89;70.06;97786.66;5071714;28;20123;-82
2021/03/13 16:17:58;;;;;;;1.48;0.77;;;;;;;5.75;70.83;97782.94;5070681;28;20101;-81
2021/03/13 16:20:26;;;;;;;1.92;0.80;;;;;;;5.78;72.47;97790.66;5071350;28;20041;-82
2021/03/13 16:22:52;;;;;;;0.70;0.68;;;;;;;5.53;71.56;97773.94;5071650;28;20060;-82
2021/03/13 16:25:19;;;;;;;2.28;0.70;;;;;;;5.46;71.79;97758.50;5070910;28;20083;-82
2021/03/13 16:27:47;;;;;;;0.60;0.60;;;;;;;5.55;72.33;97783.50;5070969;28;20143;-82
2021/03/13 16:30:16;;;;;;;2.97;0.52;;;;;;;5.52;72.27;97778.50;5070485;28;20045;-82
2021/03/13 16:32:42;;;;;;;0.55;0.52;;;;;;;5.38;71.71;97761.31;5071363;28;20053;-82
2021/03/13 16:35:09;;;;;;;0.70;0.70;;;;;;;5.37;72.62;97756.09;5070263;28;20056;-82
2021/03/13 16:37:37;;;;;;;0.70;0.70;;;;;;;5.51;72.53;97771.44;5071902;28;20444;-82
2021/03/13 16:40:06;;;;;;;0.77;0.50;;;;;;;5.44;71.62;97771.34;5071310;28;20047;-82
2021/03/13 16:42:32;;;;;;;0.80;0.55;;;;;;;5.51;71.46;97776.84;5066383;28;20052;-82
2021/03/13 16:45:00;;;;;;;2.13;0.90;;;;;;;5.48;72.07;97766.44;5063693;28;20458;-82
2021/03/13 16:47:29;;;;;;;1.92;0.70;;;;;;;5.46;71.68;97755.81;5070244;28;20052;-82
2021/03/13 16:49:55;;;;;;;3.35;1.15;;;;;;;5.49;71.60;97771.63;5053994;28;20056;-82
2021/03/13 16:52:22;;;;;;;1.30;0.70;;;;;;;5.36;71.41;97765.19;5070120;28;20049;-82
2021/03/13 16:54:49;;;;;;;2.97;0.63;;;;;;;5.36;71.57;97774.13;5071114;28;20484;-83
2021/03/13 16:57:16;;;;;;;0.95;0.80;;;;;;;5.32;72.04;97784.44;5071019;28;20129;-82
2021/03/13 16:59:42;;;;;;;1.05;0.80;;;;;;;5.19;72.50;97776.16;5070761;28;20092;-82
2021/03/13 17:02:09;;;;;;;2.88;0.75;;;;;;;5.18;72.86;97773.66;5071381;28;20406;-82
2021/03/13 17:04:36;;;;;;;0.80;0.68;;;;;;;5.22;73.30;97791.13;5069503;28;20055;-82
2021/03/13 17:07:07;;;;;;;1.90;0.82;;;;;;;5.08;73.63;97787.41;5071145;28;20052;-82
2021/03/13 17:09:34;;;;;;;0.70;0.70;;;;;;;5.04;73.94;97786.09;5070417;28;20079;-82
2021/03/13 17:12:01;;;;;;;0.60;0.60;;;;;;;5.06;73.46;97792.97;5071276;28;20530;-82
2021/03/13 17:14:28;;;;;;;0.73;0.73;;;;;;;5.00;73.81;97776.69;5070613;28;20056;-82
2021/03/13 17:16:55;;;;;;;0.77;0.77;;;;;;;4.99;74.22;97792.03;5070411;28;20132;-82
2021/03/13 17:19:21;;;;;;;0.95;0.70;;;;;;;4.96;73.90;97784.31;5065994;28;20068;-82
2021/03/13 17:21:48;;;;;;;0.70;0.70;;;;;;;4.83;74.16;97779.53;5070831;28;20045;-82
2021/03/13 17:24:15;;;;;;;1.85;0.90;;;;;;;4.79;74.46;97773.69;5070017;28;20560;-82
2021/03/13 17:26:42;;;;;;;1.02;0.80;;;;;;;4.89;75.24;97796.81;5070371;28;20082;-82
2021/03/13 17:29:10;;;;;;;2.70;1.00;;;;;;;4.81;75.97;97791.53;5070472;28;20173;-82
2021/03/13 17:31:39;;;;;;;0.70;0.70;;;;;;;4.86;75.91;97805.25;5070978;28;20040;-82
2021/03/13 17:34:06;;;;;;;1.95;0.80;;;;;;;4.83;76.19;97802.94;5069501;28;20044;-83
2021/03/13 17:36:33;;;;;;;0.68;0.68;;;;;;;4.87;76.35;97807.78;5070124;28;20048;-83
2021/03/13 17:39:02;;;;;;;0.95;0.75;;;;;;;4.66;76.43;97773.47;5055722;28;20064;-82
2021/03/13 17:41:29;;;;;;;1.50;0.90;;;;;;;4.84;76.46;97789.28;5068832;28;20048;-82
2021/03/13 17:43:55;;;;;;;0.70;0.70;;;;;;;4.82;76.43;97798.56;5070010;28;20186;-82
2021/03/13 17:46:22;;;;;;;0.68;0.68;;;;;;;4.74;77.16;97797.63;5069138;28;20143;-82
2021/03/13 17:48:49;;;;;;;1.48;0.70;;;;;;;4.87;77.41;97823.09;5069823;28;20055;-83
2021/03/13 17:51:15;;;;;;;1.83;1.02;;;;;;;4.78;76.42;97811.56;5070143;28;20105;-82
2021/03/13 17:53:42;;;;;;;2.08;0.85;;;;;;;4.76;75.95;97808.22;5069282;28;20056;-83
2021/03/13 17:56:08;;;;;;;4.30;1.27;;;;;;;4.86;76.19;97822.25;5067946;28;20442;-83
2021/03/13 17:58:41;;;;;;;2.22;0.85;;;;;;;4.93;76.43;97831.28;5069874;28;20057;-83
2021/03/13 18:01:07;;;;;;;1.35;1.00;;;;;;;4.86;77.09;97830.34;5073537;28;20060;-82
2021/03/13 18:03:35;;;;;;;2.03;1.15;;;;;;;4.90;76.24;97855.06;5074141;28;20066;-82
2021/03/13 18:06:02;;;;;;;2.95;1.52;;;;;;;4.84;76.25;97853.91;5063102;28;20082;-82
2021/03/13 18:08:29;;;;;;;1.73;1.20;;;;;;;4.91;75.85;97849.50;5075233;28;20044;-83
2021/03/13 18:10:55;;;;;;;1.95;1.45;;;;;;;4.90;76.30;97845.13;5073956;28;20132;-83
2021/03/13 18:13:25;;;;;;;4.90;1.38;;;;;;;4.96;76.51;97854.34;5074139;28;20049;-83
2021/03/13 18:15:52;;;;;;;2.50;1.70;;;;;;;5.04;75.39;97861.50;5073187;28;20427;-83
2021/03/13 18:18:18;;;;;;;2.50;1.77;;;;;;;5.10;76.76;97869.72;5072966;28;20044;-83
2021/03/13 18:20:46;;;;;;;2.92;1.55;;;;;;;5.03;77.46;97862.50;5075035;28;20053;-82
2021/03/13 18:23:14;;;;;;;1.90;1.25;;;;;;;4.96;77.00;97843.56;5074985;28;20098;-83
2021/03/13 18:25:44;;;;;;;1.38;1.10;;;;;;;4.94;77.07;97846.44;5075143;28;20150;-82
2021/03/13 18:28:19;;;;;;;;;;;;;;;5.00;78.00;97865.56;5070678;28;20044;-82
2021/03/13 18:30:47;;;;;;;1.70;0.90;;;;;;;4.92;77.50;97853.88;5076062;28;19920;-83
2021/03/13 18:33:16;;;;;;;1.90;1.40;;;;;;;4.92;77.26;97851.19;5074842;28;20055;-83
2021/03/13 18:35:43;;;;;;;1.33;1.00;;;;;;;4.89;77.49;97839.91;5072169;28;20071;-82
2021/03/13 18:38:10;;;;;;;5.53;0.80;;;;;;;4.76;77.63;97838.66;5072621;28;20322;-83
2021/03/13 18:40:37;;;;;;;1.00;1.00;;;;;;;4.84;76.86;97845.84;5072378;28;20446;-82
2021/03/13 18:43:06;;;;;;;4.07;1.25;;;;;;;4.74;77.04;97840.72;5073029;28;20052;-82
2021/03/13 18:45:36;;;;;;;2.58;1.23;;;;;;;4.65;77.48;97828.31;5061805;28;20129;-82
2021/03/13 18:48:05;;;;;;;1.92;1.27;;;;;;;4.68;77.37;97840.59;5072177;28;20041;-82
2021/03/13 18:50:34;;;;;;;1.65;0.90;;;;;;;4.70;77.17;97844.78;5071988;28;20101;-82
2021/03/13 18:53:01;;;;;;;3.53;0.98;;;;;;;4.61;77.35;97841.31;5072821;28;20135;-83
2021/03/13 18:55:28;;;;;;;1.40;0.93;;;;;;;4.65;76.63;97847.16;5072700;28;20092;-82
2021/03/13 18:57:55;;;;;;;2.22;1.20;;;;;;;4.78;76.77;97877.00;5072475;28;20070;-84
2021/03/13 19:00:22;;;;;;;3.85;1.20;;;;;;;4.82;76.29;97879.34;5071157;28;20187;-81
2021/03/13 19:02:51;;;;;;;6.45;1.77;;;;;;;4.78;76.17;97881.56;5071241;28;20048;-80
2021/03/13 19:05:18;;;;;;;2.30;1.00;;;;;;;4.89;75.48;97896.47;5066020;28;20067;-81
2021/03/13 19:07:56;;;;;;;7.00;1.13;;;;;;;4.83;76.68;97911.47;5064085;28;20049;-80
2021/03/13 19:10:23;;;;;;;2.13;1.08;;;;;;;4.73;77.02;97892.06;5071019;28;20045;-81
2021/03/13 19:12:50;;;;;;;2.97;1.08;;;;;;;4.70;78.22;97906.69;5059987;28;20131;-81
2021/03/13 19:15:18;;;;;;;2.47;1.08;;;;;;;4.68;78.62;97905.19;5071796;28;20051;-80
2021/03/13 19:17:49;;;;;;;5.63;2.17;;;;;;;4.52;79.44;97884.63;5070975;28;20060;-80
2021/03/13 19:23:12;;;;;;;4.45;1.23;;;;;;;4.68;80.05;97910.56;5064966;28;20071;-80
2021/03/13 19:25:39;;;;;;;2.35;1.70;;;;;;;4.65;79.98;97900.16;5071191;28;20072;-81
2021/03/13 19:28:07;;;;;;;3.70;1.67;;;;;;;4.59;82.52;97902.56;5070686;28;20123;-80
2021/03/13 19:30:33;;;;;;;6.97;1.30;;;;;;;4.51;81.74;97901.78;5072184;28;20070;-81
2021/03/13 19:32:59;;;;;;;3.20;1.45;;;;;;;4.30;81.91;97903.22;5070223;28;20101;-80
2021/03/13 19:35:29;;;;;;;2.22;1.40;;;;;;;4.38;82.34;97921.16;5071339;28;20059;-80
2021/03/13 19:37:55;;;;;;;3.70;1.38;;;;;;;4.33;82.76;97937.00;5073621;28;20041;-80
2021/03/13 19:40:23;;;;;;;3.42;1.80;;;;;;;4.13;82.51;97915.09;5071763;28;20435;-80
2021/03/13 19:42:50;;;;;;;1.92;1.02;;;;;;;4.16;80.95;97933.56;5069273;28;20056;-80
2021/03/13 19:45:20;;;;;;;4.43;1.48;;;;;;;3.93;83.42;97911.94;5069488;28;20657;-79
2021/03/13 19:47:46;;;;;;;;;;;;;;;3.99;83.02;97913.94;5068946;28;20048;-81
2021/03/13 19:50:14;;;;;;;4.38;1.83;;;;;;;3.99;83.12;97897.81;5072320;28;19927;-80
2021/03/13 19:52:41;;;;;;;26.65;9.45;;;;;;;4.05;83.11;97921.31;5071190;28;20048;-80
2021/03/13 19:55:07;;;;;;;60.72;22.42;;;;;;;3.85;82.47;97915.50;5071109;28;20121;-80
2021/03/13 19:57:36;;;;;;;34.00;14.38;;;;;;;3.72;83.24;97914.19;5070980;28;20047;-82
2021/03/13 20:00:04;;;;;;;12.70;3.85;;;;;;;3.57;84.08;97921.28;5071025;28;20044;-79
2021/03/13 20:02:32;;;;;;;8.73;4.10;;;;;;;3.48;84.43;97931.22;5070934;28;20135;-80
2021/03/13 20:05:00;;;;;;;9.65;3.85;;;;;;;3.34;84.96;97935.44;5071286;28;20115;-80
2021/03/13 20:07:29;;;;;;;6.80;3.20;;;;;;;3.27;84.05;97933.59;5072139;28;20400;-81
2021/03/13 20:09:56;;;;;;;10.77;4.72;;;;;;;3.33;84.86;97939.13;5071666;28;20052;-81
2021/03/13 20:12:25;;;;;;;20.73;9.43;;;;;;;3.23;85.10;97908.06;5071624;28;20056;-79
2021/03/13 20:14:52;;;;;;;3.78;1.45;;;;;;;3.18;85.26;97925.53;5071893;28;20134;-80
2021/03/13 20:17:24;;;;;;;4.10;1.55;;;;;;;3.30;85.69;97934.09;5071691;28;20476;-79
2021/03/13 20:19:51;;;;;;;10.45;3.70;;;;;;;3.35;85.75;97928.19;5070751;28;20053;-79
2021/03/13 20:22:17;;;;;;;31.25;10.57;;;;;;;3.26;85.62;97921.16;5071470;28;20291;-78
2021/03/13 20:24:45;;;;;;;8.93;4.63;;;;;;;3.34;85.94;97938.13;5069846;28;20041;-79
2021/03/13 20:27:12;;;;;;;6.45;3.17;;;;;;;3.36;84.83;97921.81;5072419;28;20054;-79
2021/03/13 20:29:38;;;;;;;14.93;6.15;;;;;;;3.31;85.31;97887.41;5072003;28;20113;-79
2021/03/13 20:32:05;;;;;;;46.08;17.25;;;;;;;3.33;84.75;97888.06;5071151;28;20060;-79
2021/03/13 20:34:31;;;;;;;10.00;4.30;;;;;;;3.44;85.53;97899.47;5071815;28;20395;-79
2021/03/13 20:37:03;;;;;;;4.82;2.55;;;;;;;3.40;84.59;97893.59;5071942;28;20044;-79
2021/03/13 20:39:30;;;;;;;1.75;1.05;;;;;;;3.48;84.73;97904.34;5081016;28;20269;-79
2021/03/13 20:41:56;;;;;;;2.40;0.93;;;;;;;3.32;85.56;97890.94;5083465;28;20063;-79
2021/03/13 20:44:22;;;;;;;1.05;0.98;;;;;;;3.41;85.39;97897.97;5070495;28;20404;-79
2021/03/13 20:46:49;;;;;;;2.33;1.65;;;;;;;3.33;84.39;97882.69;5070541;28;20052;-79
2021/03/13 20:49:15;;;;;;;4.15;1.67;;;;;;;3.43;84.75;97889.72;5071002;28;20048;-79
2021/03/13 20:51:41;;;;;;;14.32;4.13;;;;;;;3.45;85.12;97861.69;5070583;28;20056;-79
2021/03/13 20:54:09;;;;;;;6.97;3.38;;;;;;;3.46;84.00;97867.91;5061437;28;20454;-79
2021/03/13 20:56:36;;;;;;;6.20;2.45;;;;;;;3.41;85.02;97854.97;5075360;28;20052;-79
2021/03/13 20:59:02;;;;;;;6.07;2.80;;;;;;;3.53;85.60;97848.22;5071838;28;20043;-80
2021/03/13 21:01:31;;;;;;;6.53;4.00;;;;;;;3.61;85.77;97847.34;5085375;28;20093;-80
2021/03/13 21:03:57;;;;;;;7.93;2.70;;;;;;;3.72;85.77;97863.13;5078109;28;20048;-80
2021/03/13 21:06:24;;;;;;;3.85;2.63;;;;;;;3.59;85.96;97853.94;5079358;28;20049;-80
2021/03/13 21:08:50;;;;;;;5.72;2.42;;;;;;;3.53;86.00;97853.59;5060801;28;20102;-79
2021/03/13 21:11:17;;;;;;;2.65;1.98;;;;;;;3.57;85.58;97842.50;5069547;28;20075;-79
2021/03/13 21:13:43;;;;;;;2.15;1.52;;;;;;;3.62;85.22;97842.84;5070674;28;20060;-79
2021/03/13 21:16:10;;;;;;;3.75;1.40;;;;;;;3.56;85.09;97830.94;5069584;28;20051;-80
2021/03/13 21:18:36;;;;;;;1.33;1.20;;;;;;;3.48;85.88;97839.84;5069863;28;20409;-79
2021/03/13 21:21:03;;;;;;;1.70;1.42;;;;;;;3.48;85.76;97837.16;5070581;28;20051;-80
2021/03/13 21:23:29;;;;;;;2.13;1.10;;;;;;;3.39;86.72;97857.00;5069479;28;20573;-79
2021/03/13 21:25:56;;;;;;;2.35;1.15;;;;;;;3.41;86.12;97873.78;5070690;28;20052;-80
2021/03/13 21:28:24;;;;;;;4.63;1.70;;;;;;;3.25;85.74;97876.50;5070639;28;20052;-80
2021/03/13 21:30:50;;;;;;;5.72;2.40;;;;;;;3.32;86.37;97901.69;5070548;28;20109;-79
2021/03/13 21:33:17;;;;;;;4.25;2.20;;;;;;;3.35;86.35;97890.59;5070453;28;20416;-79